createdAt,value
2024-04-17T00:01:06.595Z,1.40
2024-04-17T00:03:33.763Z,1.70
2024-04-17T00:06:00.813Z,1.84
2024-04-17T00:08:27.884Z,1.36
2024-04-17T00:10:55.023Z,1.62
2024-04-17T00:13:22.227Z,1.45
2024-04-17T00:15:49.276Z,1.67
2024-04-17T00:18:16.355Z,1.11
2024-04-17T00:20:43.427Z,1.36
2024-04-17T00:23:10.336Z,1.07
2024-04-17T00:25:37.594Z,0.97
2024-04-17T00:28:04.713Z,1.10
2024-04-17T00:30:31.757Z,1.62
2024-04-17T00:32:59.847Z,1.39
2024-04-17T00:35:27.322Z,0.83
2024-04-17T00:37:54.344Z,1.62
2024-04-17T00:40:21.291Z,0.95
2024-04-17T00:57:28.270Z,0.85
2024-04-17T00:59:55.300Z,1.54
2024-04-17T01:02:22.116Z,0.92
2024-04-17T01:04:48.969Z,0.71
2024-04-17T01:29:13.328Z,1.44
2024-04-17T01:31:40.590Z,1.07
2024-04-17T01:34:07.459Z,0.69
2024-04-17T01:36:38.440Z,0.99
2024-04-17T01:39:05.573Z,0.75
2024-04-17T01:44:14.476Z,1.11
2024-04-17T01:46:42.080Z,1.48
2024-04-17T01:49:08.977Z,0.56
2024-04-17T02:53:11.232Z,1.24
2024-04-17T02:55:38.291Z,0.75
2024-04-17T03:51:32.898Z,1.19
2024-04-17T04:11:52.635Z,1.12
2024-04-17T04:14:19.426Z,1.10
2024-04-17T04:16:46.541Z,0.39
2024-04-17T04:19:13.596Z,0.51
2024-04-17T04:29:53.260Z,0.92
2024-04-17T04:32:20.265Z,0.57
2024-04-17T04:34:58.723Z,0.92
2024-04-17T04:37:27.232Z,0.59
2024-04-17T04:39:54.403Z,0.89
2024-04-17T04:42:21.933Z,0.34
2024-04-17T04:44:49.979Z,0.97
2024-04-17T04:47:16.939Z,0.36
2024-04-17T04:49:45.734Z,0.85
2024-04-17T04:52:13.295Z,1.00
2024-04-17T04:54:40.323Z,1.05
2024-04-17T04:57:07.415Z,0.80
2024-04-17T04:59:34.382Z,1.00
2024-04-17T05:02:01.719Z,0.49
2024-04-17T05:04:29.533Z,0.25
2024-04-17T05:06:56.575Z,0.32
2024-04-17T05:09:24.136Z,0.62
2024-04-17T05:11:51.376Z,0.55
2024-04-17T05:14:18.426Z,0.50
2024-04-17T05:16:45.733Z,0.52
2024-04-17T05:19:13.006Z,0.37
2024-04-17T05:24:44.902Z,0.34
2024-04-17T05:30:44.537Z,1.05
2024-04-17T05:33:11.492Z,0.68
2024-04-17T07:39:04.585Z,1.08
2024-04-17T07:44:34.416Z,0.98
2024-04-17T07:47:01.709Z,0.59
2024-04-17T08:06:29.827Z,1.30
2024-04-17T08:15:36.926Z,0.82
2024-04-17T08:18:06.852Z,0.69
2024-04-17T08:20:38.926Z,0.76
2024-04-17T09:02:04.130Z,2.30
2024-04-17T09:04:42.399Z,2.66
2024-04-17T09:07:09.103Z,2.56
2024-04-17T09:10:12.892Z,3.13
2024-04-17T09:32:11.993Z,3.66
2024-04-17T09:41:02.344Z,3.80
2024-04-17T09:54:32.932Z,3.03
2024-04-17T10:04:26.654Z,3.92
2024-04-17T10:56:09.460Z,4.42
2024-04-17T11:39:49.643Z,4.87
2024-04-17T11:42:16.676Z,4.43
2024-04-17T12:04:12.305Z,2.81
2024-04-17T12:07:11.500Z,2.50
2024-04-17T12:13:03.746Z,3.26
2024-04-17T12:22:44.098Z,3.41
2024-04-17T12:32:06.115Z,3.73
2024-04-17T12:35:02.799Z,2.85
2024-04-17T12:47:50.270Z,2.74
2024-04-17T15:04:58.577Z,2.24
2024-04-17T15:46:45.914Z,4.23
2024-04-17T18:22:23.180Z,2.27
2024-04-17T18:24:49.897Z,2.18
2024-04-17T18:27:16.600Z,2.20
2024-04-17T18:29:43.229Z,2.16
2024-04-17T18:32:10.579Z,2.09
2024-04-17T18:34:37.155Z,1.99
2024-04-17T18:37:03.833Z,1.89
2024-04-17T18:39:30.441Z,1.88
2024-04-17T18:41:57.050Z,1.84
2024-04-17T18:44:23.656Z,1.86
2024-04-17T18:46:50.224Z,1.82
2024-04-17T18:49:16.869Z,1.77
2024-04-17T18:51:43.768Z,1.76
2024-04-17T18:54:10.663Z,1.68
2024-04-17T18:56:37.505Z,1.58
2024-04-17T18:59:04.119Z,1.45
2024-04-17T19:01:30.713Z,1.33
2024-04-17T19:03:57.518Z,1.32
2024-04-17T19:06:24.438Z,1.32
2024-04-17T19:08:51.230Z,1.28
2024-04-17T19:11:18.106Z,1.29
2024-04-17T19:13:47.244Z,1.22
2024-04-17T19:16:19.583Z,1.26
2024-04-17T19:18:48.890Z,1.22
2024-04-17T19:21:16.500Z,1.18
2024-04-17T19:23:43.685Z,1.21
2024-04-17T19:26:10.434Z,1.10
2024-04-17T19:28:37.143Z,1.07
2024-04-17T19:31:04.898Z,0.98
2024-04-17T19:33:34.312Z,0.96
2024-04-17T19:36:27.322Z,0.98
2024-04-17T19:39:00.424Z,0.88
2024-04-17T19:41:27.276Z,0.83
2024-04-17T19:43:59.150Z,0.86
2024-04-17T19:46:28.062Z,0.82
2024-04-17T19:48:55.041Z,0.79
2024-04-17T19:51:23.336Z,0.79
2024-04-17T19:53:50.087Z,0.79
2024-04-17T19:56:17.902Z,0.82
2024-04-17T19:58:44.575Z,0.74
2024-04-17T20:01:11.318Z,0.68
2024-04-17T20:03:38.750Z,0.65
2024-04-17T20:06:05.692Z,0.61
2024-04-17T20:08:32.328Z,0.53
2024-04-17T20:10:59.454Z,0.49
2024-04-17T20:13:26.858Z,0.46
2024-04-17T20:16:02.832Z,0.44
2024-04-17T20:18:30.025Z,0.40
2024-04-17T20:21:00.853Z,0.32
2024-04-17T20:23:27.879Z,0.29
2024-04-17T20:26:13.308Z,0.27
2024-04-17T20:28:45.131Z,0.16
2024-04-17T20:31:19.205Z,0.10
2024-04-17T20:33:46.853Z,0.12
2024-04-17T20:36:15.263Z,0.10
2024-04-17T20:38:41.916Z,0.08
2024-04-17T20:41:08.815Z,0.07
2024-04-17T20:43:36.266Z,0.01
2024-04-17T20:46:12.323Z,-0.04
2024-04-17T20:48:42.084Z,-0.11
2024-04-17T20:51:08.760Z,-0.15
2024-04-17T20:53:37.120Z,-0.26
2024-04-17T20:56:03.834Z,-0.29
2024-04-17T20:58:30.419Z,-0.32
2024-04-17T21:01:00.299Z,-0.33
2024-04-17T21:03:27.576Z,-0.33
2024-04-17T21:05:58.298Z,-0.42
2024-04-17T21:08:24.870Z,-0.41
2024-04-17T21:11:01.315Z,-0.44
2024-04-17T21:13:27.985Z,-0.48
2024-04-17T21:16:16.688Z,-0.50
2024-04-17T21:18:44.826Z,-0.53
2024-04-17T21:21:11.543Z,-0.54
2024-04-17T21:23:40.585Z,-0.56
2024-04-17T21:26:12.963Z,-0.62
2024-04-17T21:28:42.987Z,-0.66
2024-04-17T21:31:20.183Z,-0.73
2024-04-17T21:33:48.284Z,-0.70
2024-04-17T21:36:15.102Z,-0.72
2024-04-17T21:38:41.750Z,-0.72
2024-04-17T21:41:08.491Z,-0.73
2024-04-17T21:43:35.317Z,-0.74
2024-04-17T21:46:06.637Z,-0.76
2024-04-17T21:48:33.610Z,-0.75
2024-04-17T21:51:01.615Z,-0.70
2024-04-17T21:53:28.243Z,-0.68
2024-04-17T21:56:04.658Z,-0.66
2024-04-17T21:58:31.328Z,-0.90
2024-04-17T22:00:58.751Z,-0.95
2024-04-17T22:03:25.631Z,-0.89
2024-04-17T22:05:52.778Z,-0.83
2024-04-17T22:08:20.040Z,-0.85
2024-04-17T22:10:46.816Z,-0.85
2024-04-17T22:13:13.574Z,-0.82
2024-04-17T22:15:40.322Z,-0.80
2024-04-17T22:18:07.201Z,-0.78
2024-04-17T22:20:33.822Z,-0.81
2024-04-17T22:23:00.463Z,-0.88
2024-04-17T22:25:27.058Z,-0.92
2024-04-17T22:27:53.644Z,-0.93
2024-04-17T22:30:20.301Z,-0.94
2024-04-17T22:32:47.098Z,-0.95
2024-04-17T22:35:13.801Z,-0.98
2024-04-17T22:37:40.367Z,-1.04
2024-04-17T22:40:07.409Z,-1.04
2024-04-17T22:42:34.041Z,-1.02
2024-04-17T22:45:02.496Z,-1.00
2024-04-17T22:47:29.410Z,-0.99
2024-04-17T22:49:56.235Z,-0.98
2024-04-17T22:52:28.074Z,-1.01
2024-04-17T22:54:54.734Z,-1.05
2024-04-17T22:57:21.336Z,-1.06
2024-04-17T22:59:47.917Z,-1.05
2024-04-17T23:02:14.508Z,-1.04
2024-04-17T23:04:41.103Z,-1.01
2024-04-17T23:07:07.721Z,-1.01
2024-04-17T23:09:34.995Z,-0.99
2024-04-17T23:12:01.594Z,-1.01
2024-04-17T23:14:28.166Z,-1.02
2024-04-17T23:16:54.813Z,-1.01
2024-04-17T23:19:25.578Z,-1.05
2024-04-17T23:21:52.757Z,-1.10
2024-04-17T23:24:19.426Z,-1.12
2024-04-17T23:26:46.183Z,-1.15
2024-04-17T23:29:12.767Z,-1.08
2024-04-17T23:31:39.402Z,-1.01
2024-04-17T23:34:06.045Z,-1.00
2024-04-17T23:36:32.633Z,-0.95
2024-04-17T23:38:59.329Z,-0.91
2024-04-17T23:41:25.902Z,-0.92
2024-04-17T23:43:52.488Z,-0.90
2024-04-17T23:46:19.058Z,-0.90
2024-04-17T23:48:45.785Z,-0.88
2024-04-17T23:51:12.562Z,-0.88
2024-04-17T23:53:39.296Z,-0.88
2024-04-17T23:56:06.294Z,-0.88
2024-04-17T23:58:32.960Z,-0.83
